Time;durP1;ratioP1;P1;durP2;ratioP2;P2;SDS_P1;SDS_P2;PMS_P1;PMS_P2;Temp;Humidity;BMP_temperature;BMP_pressure;BME280_temperature;BME280_humidity;BME280_pressure;Samples;Min_cycle;Max_cycle;Signal;HPM_P1;HPM_P2
2023/01/27 00:01:58;;;;;;;;;;;19.20;51.20;;;;;;7748906;23;19979;-71
2023/01/27 00:04:59;;;;;;;;;;;19.20;51.20;;;;;;7748605;23;19904;-71
2023/01/27 00:07:59;;;;;;;;;;;19.20;51.20;;;;;;7748601;22;19904;-71
2023/01/27 00:14:20;;;;;;;;;;;19.20;51.20;;;;;;7748577;23;19978;-71
2023/01/27 00:17:20;;;;;;;;;;;19.20;51.20;;;;;;7748369;22;19938;-72
2023/01/27 00:27:07;;;;;;;;;;;19.20;51.20;;;;;;7748338;22;19987;-71
2023/01/27 00:30:09;;;;;;;;;;;19.20;51.80;;;;;;7748681;23;19912;-71
2023/01/27 00:33:25;;;;;;;;;;;19.20;51.20;;;;;;7721634;23;19919;-71
2023/01/27 00:36:27;;;;;;;;;;;19.20;51.20;;;;;;7748756;22;20319;-71
2023/01/27 00:39:27;;;;;;;;;;;19.20;51.20;;;;;;7748286;23;19922;-71
2023/01/27 00:42:28;;;;;;;;;;;19.20;51.20;;;;;;7748576;23;19926;-71
2023/01/27 00:48:47;;;;;;;;;;;19.20;51.20;;;;;;7748793;23;19907;-71
2023/01/27 00:51:48;;;;;;;;;;;19.20;51.20;;;;;;7748371;23;19961;-71
2023/01/27 00:54:48;;;;;;;;;;;19.20;51.30;;;;;;7748364;23;20335;-71
2023/01/27 00:57:49;;;;;;;;;;;19.20;51.30;;;;;;7748294;22;19971;-71
2023/01/27 01:00:51;;;;;;;;;;;19.20;51.20;;;;;;7721626;23;19915;-71
2023/01/27 01:03:53;;;;;;;;;;;19.20;51.30;;;;;;7748481;23;19926;-71
2023/01/27 01:06:53;;;;;;;;;;;19.20;51.30;;;;;;7748102;22;19910;-71
2023/01/27 01:09:55;;;;;;;;;;;19.20;51.30;;;;;;7748709;23;19945;-71
2023/01/27 01:12:55;;;;;;;;;;;19.20;51.20;;;;;;7721227;23;19910;-71
2023/01/27 01:15:56;;;;;;;;;;;19.20;51.20;;;;;;7749465;22;19903;-70
2023/01/27 01:18:57;;;;;;;;;;;19.20;51.20;;;;;;7724219;23;19966;-71
2023/01/27 01:21:58;;;;;;;;;;;19.20;51.20;;;;;;7724201;23;19907;-71
2023/01/27 01:24:58;;;;;;;;;;;19.20;51.20;;;;;;7750575;23;19910;-72
2023/01/27 01:28:00;;;;;;;;;;;19.20;51.20;;;;;;7751009;22;19951;-70
2023/01/27 01:31:08;;;;;;;;;;;19.20;51.30;;;;;;7750622;23;19915;-72
2023/01/27 01:34:08;;;;;;;;;;;19.20;51.20;;;;;;7750936;23;19903;-71
2023/01/27 01:37:09;;;;;;;;;;;19.20;51.20;;;;;;7723566;23;19926;-71
2023/01/27 01:40:13;;;;;;;;;;;19.20;51.30;;;;;;7723924;23;20020;-71
2023/01/27 01:43:14;;;;;;;;;;;19.20;51.30;;;;;;7750672;23;20319;-72
2023/01/27 01:46:15;;;;;;;;;;;19.20;51.20;;;;;;7723491;22;19953;-71
2023/01/27 01:49:18;;;;;;;;;;;19.20;51.20;;;;;;7723800;23;19903;-71
2023/01/27 01:52:20;;;;;;;;;;;19.20;51.20;;;;;;7750712;23;20331;-71
2023/01/27 01:55:21;;;;;;;;;;;19.20;51.30;;;;;;7750437;23;19907;-71
2023/01/27 01:58:22;;;;;;;;;;;19.20;51.30;;;;;;7723064;23;19962;-71
2023/01/27 02:01:23;;;;;;;;;;;19.20;51.20;;;;;;7750673;23;19903;-72
2023/01/27 02:04:25;;;;;;;;;;;19.20;51.30;;;;;;7750159;23;19911;-71
2023/01/27 02:07:44;;;;;;;;;;;19.20;51.30;;;;;;7749850;22;19904;-72
2023/01/27 02:10:45;;;;;;;;;;;19.20;51.30;;;;;;7749929;23;20025;-71
2023/01/27 02:13:46;;;;;;;;;;;19.20;51.30;;;;;;7750415;23;19908;-71
2023/01/27 02:16:47;;;;;;;;;;;19.20;51.30;;;;;;7749673;22;19991;-71
2023/01/27 02:19:47;;;;;;;;;;;19.20;51.30;;;;;;7749959;23;20312;-71
2023/01/27 02:23:06;;;;;;;;;;;19.20;51.30;;;;;;7722879;23;19903;-71
2023/01/27 02:26:14;;;;;;;;;;;19.20;51.30;;;;;;7749913;22;19915;-71
2023/01/27 02:29:15;;;;;;;;;;;19.20;51.40;;;;;;7749776;23;20314;-70
2023/01/27 02:32:23;;;;;;;;;;;19.20;51.30;;;;;;7750028;23;19915;-71
2023/01/27 02:35:26;;;;;;;;;;;19.20;51.30;;;;;;7722786;22;19942;-70
2023/01/27 02:38:29;;;;;;;;;;;19.20;51.20;;;;;;7749332;23;20362;-71
2023/01/27 02:41:32;;;;;;;;;;;19.20;51.20;;;;;;7749834;23;20010;-71
2023/01/27 02:44:33;;;;;;;;;;;19.10;51.20;;;;;;7749537;23;19910;-71
2023/01/27 02:47:33;;;;;;;;;;;19.20;51.40;;;;;;7722694;23;19904;-71
2023/01/27 02:50:34;;;;;;;;;;;19.20;51.30;;;;;;7749589;22;19904;-71
2023/01/27 02:53:35;;;;;;;;;;;19.20;51.30;;;;;;7722882;23;19911;-71
2023/01/27 02:56:35;;;;;;;;;;;19.20;51.30;;;;;;7749248;22;19907;-71
2023/01/27 02:59:36;;;;;;;;;;;19.20;51.30;;;;;;7749521;23;19908;-71
2023/01/27 03:02:36;;;;;;;;;;;19.20;51.30;;;;;;7722882;23;19908;-71
2023/01/27 03:05:37;;;;;;;;;;;19.20;51.30;;;;;;7749370;22;19908;-71
2023/01/27 03:08:37;;;;;;;;;;;19.20;51.30;;;;;;7749226;23;19908;-71
2023/01/27 03:18:17;;;;;;;;;;;19.10;51.20;;;;;;7749013;22;19907;-70
2023/01/27 03:21:17;;;;;;;;;;;19.20;51.30;;;;;;7749146;23;19911;-71
2023/01/27 03:24:18;;;;;;;;;;;19.20;51.40;;;;;;7749293;23;19904;-71
2023/01/27 03:27:19;;;;;;;;;;;19.20;51.30;;;;;;7722216;23;19903;-71
2023/01/27 03:30:20;;;;;;;;;;;19.20;51.30;;;;;;7748838;23;19914;-71
2023/01/27 03:33:20;;;;;;;;;;;19.20;51.30;;;;;;7749330;23;19915;-71
2023/01/27 03:46:21;;;;;;;;;;;19.20;51.30;;;;;;7749579;22;20343;-70
2023/01/27 03:49:21;;;;;;;;;;;19.20;51.30;;;;;;7748885;23;19931;-71
2023/01/27 03:52:22;;;;;;;;;;;19.20;51.30;;;;;;7722217;23;20030;-71
2023/01/27 03:55:22;;;;;;;;;;;19.20;51.40;;;;;;7722061;23;19911;-72
2023/01/27 03:58:23;;;;;;;;;;;19.20;51.30;;;;;;7722206;23;19910;-72
2023/01/27 04:01:23;;;;;;;;;;;19.10;51.20;;;;;;7721799;23;19911;-71
2023/01/27 04:07:43;;;;;;;;;;;19.20;51.40;;;;;;7748590;22;19927;-71
2023/01/27 04:11:53;;;;;;;;;;;19.10;51.30;;;;;;7748544;23;20623;-71
2023/01/27 04:14:05;;;;;;;;;;;19.20;51.30;;;;;;7748362;23;19915;-71
2023/01/27 04:17:10;;;;;;;;;;;19.20;51.30;;;;;;7748845;22;20046;-71
2023/01/27 04:20:11;;;;;;;;;;;19.20;52.10;;;;;;7748181;23;19939;-70
2023/01/27 04:23:12;;;;;;;;;;;19.20;51.40;;;;;;7748974;23;20304;-72
2023/01/27 04:26:12;;;;;;;;;;;19.20;51.30;;;;;;7748285;22;19903;-71
2023/01/27 04:29:13;;;;;;;;;;;19.20;51.40;;;;;;7721961;23;19911;-71
2023/01/27 04:32:14;;;;;;;;;;;19.20;51.30;;;;;;7748105;23;19923;-72
2023/01/27 04:35:14;;;;;;;;;;;19.10;51.20;;;;;;7721869;23;19904;-71
2023/01/27 04:38:15;;;;;;;;;;;19.20;51.30;;;;;;7749052;22;20216;-71
2023/01/27 04:41:16;;;;;;;;;;;19.10;51.30;;;;;;7722347;23;19915;-71
2023/01/27 04:44:19;;;;;;;;;;;19.20;51.30;;;;;;7748510;23;19907;-71
2023/01/27 04:47:19;;;;;;;;;;;19.20;51.40;;;;;;7748373;22;19942;-71
2023/01/27 04:50:20;;;;;;;;;;;19.20;51.40;;;;;;7748036;23;19975;-70
2023/01/27 04:53:20;;;;;;;;;;;19.20;51.50;;;;;;7721885;23;19910;-71
2023/01/27 04:56:21;;;;;;;;;;;19.20;51.40;;;;;;7748193;22;19935;-72
2023/01/27 05:02:59;;;;;;;;;;;19.10;51.30;;;;;;7748461;23;19908;-71
2023/01/27 05:06:00;;;;;;;;;;;19.20;51.40;;;;;;7748216;22;19910;-72
2023/01/27 05:09:01;;;;;;;;;;;19.20;51.50;;;;;;7721683;23;19903;-71
2023/01/27 05:12:01;;;;;;;;;;;19.10;51.30;;;;;;7721124;23;19990;-71
2023/01/27 05:15:02;;;;;;;;;;;19.20;51.40;;;;;;7748579;23;20346;-71
2023/01/27 05:18:02;;;;;;;;;;;19.20;51.40;;;;;;7720970;23;20220;-70
2023/01/27 05:21:03;;;;;;;;;;;19.20;51.40;;;;;;7748347;22;19907;-71
2023/01/27 05:24:04;;;;;;;;;;;19.20;51.30;;;;;;7748086;23;19903;-71
2023/01/27 05:27:05;;;;;;;;;;;19.20;51.40;;;;;;7748175;22;19904;-71
2023/01/27 05:30:06;;;;;;;;;;;19.20;51.40;;;;;;7721353;23;19908;-70
2023/01/27 05:33:07;;;;;;;;;;;19.20;51.40;;;;;;7748068;23;19926;-71
2023/01/27 05:36:08;;;;;;;;;;;19.20;51.50;;;;;;7748389;22;19911;-71
2023/01/27 05:39:09;;;;;;;;;;;19.10;51.40;;;;;;7749044;23;20333;-71
2023/01/27 05:42:10;;;;;;;;;;;19.20;51.40;;;;;;7721115;23;19903;-71
2023/01/27 05:45:10;;;;;;;;;;;19.20;51.50;;;;;;7748114;23;19904;-71
2023/01/27 05:48:11;;;;;;;;;;;19.20;51.50;;;;;;7749063;22;19919;-71
2023/01/27 05:51:12;;;;;;;;;;;19.10;51.40;;;;;;7749382;23;19904;-71
2023/01/27 05:54:12;;;;;;;;;;;19.20;51.50;;;;;;7748069;23;19904;-71
2023/01/27 05:57:13;;;;;;;;;;;19.10;51.40;;;;;;7748099;22;19983;-71
2023/01/27 06:00:13;;;;;;;;;;;19.20;51.50;;;;;;7747809;23;19914;-70
2023/01/27 06:03:14;;;;;;;;;;;19.20;51.40;;;;;;7749418;23;19903;-72
2023/01/27 06:06:17;;;;;;;;;;;19.20;51.50;;;;;;7750189;22;19986;-72
2023/01/27 06:09:18;;;;;;;;;;;19.10;51.50;;;;;;7723956;23;19911;-71
2023/01/27 06:12:18;;;;;;;;;;;19.20;51.50;;;;;;7750065;23;20327;-71
2023/01/27 06:15:19;;;;;;;;;;;19.20;51.50;;;;;;7750294;23;19954;-70
2023/01/27 06:18:19;;;;;;;;;;;19.20;52.10;;;;;;7751013;22;19915;-71
2023/01/27 06:21:20;;;;;;;;;;;19.20;51.50;;;;;;7750564;23;19912;-72
2023/01/27 06:24:22;;;;;;;;;;;19.20;51.50;;;;;;7723741;23;20646;-71
2023/01/27 06:27:23;;;;;;;;;;;19.20;51.50;;;;;;7750093;22;19903;-71
2023/01/27 06:30:24;;;;;;;;;;;19.20;51.50;;;;;;7750239;23;19912;-71
2023/01/27 06:33:27;;;;;;;;;;;19.20;51.50;;;;;;7748710;23;20184;-71
2023/01/27 06:36:28;;;;;;;;;;;19.20;51.50;;;;;;7749974;22;19991;-72
2023/01/27 06:39:28;;;;;;;;;;;19.20;51.50;;;;;;7750025;23;19973;-71
2023/01/27 06:42:29;;;;;;;;;;;19.20;51.50;;;;;;7750071;22;19911;-71
2023/01/27 06:45:30;;;;;;;;;;;19.20;51.50;;;;;;7749671;22;19903;-72
2023/01/27 06:48:30;;;;;;;;;;;19.10;51.40;;;;;;7723396;23;20399;-71
2023/01/27 06:51:31;;;;;;;;;;;19.20;51.60;;;;;;7749793;23;19903;-71
2023/01/27 06:54:32;;;;;;;;;;;19.20;51.50;;;;;;7750136;23;19908;-69
2023/01/27 06:57:33;;;;;;;;;;;19.20;51.50;;;;;;7722952;23;19907;-71
2023/01/27 07:00:35;;;;;;;;;;;19.20;51.50;;;;;;7752092;23;19953;-70
2023/01/27 07:03:35;;;;;;;;;;;19.10;51.30;;;;;;7753608;23;20323;-70
2023/01/27 07:06:36;;;;;;;;;;;19.20;51.40;;;;;;7752311;22;19914;-70
2023/01/27 07:09:36;;;;;;;;;;;19.20;51.40;;;;;;7752565;23;19990;-70
2023/01/27 07:12:38;;;;;;;;;;;19.20;51.50;;;;;;7752527;23;19908;-70
2023/01/27 07:15:39;;;;;;;;;;;19.20;51.40;;;;;;7751503;22;19903;-70
2023/01/27 07:18:39;;;;;;;;;;;19.20;51.40;;;;;;7725130;23;19904;-71
2023/01/27 07:21:40;;;;;;;;;;;19.10;51.30;;;;;;7725233;23;19911;-71
2023/01/27 07:24:40;;;;;;;;;;;19.10;51.40;;;;;;7752378;23;19904;-70
2023/01/27 07:27:41;;;;;;;;;;;19.20;51.40;;;;;;7724863;23;19904;-70
2023/01/27 07:30:42;;;;;;;;;;;19.20;51.50;;;;;;7725060;23;19903;-70
2023/01/27 07:33:43;;;;;;;;;;;19.20;51.40;;;;;;7751796;23;19907;-71
2023/01/27 07:36:44;;;;;;;;;;;19.10;51.30;;;;;;7752090;22;19910;-71
2023/01/27 07:39:46;;;;;;;;;;;19.20;51.40;;;;;;7752000;23;20334;-70
2023/01/27 07:42:47;;;;;;;;;;;19.20;51.50;;;;;;7751905;23;19907;-71
2023/01/27 07:45:48;;;;;;;;;;;19.20;51.40;;;;;;7751406;22;19910;-70
2023/01/27 07:48:49;;;;;;;;;;;19.10;51.30;;;;;;7725663;23;19930;-70
2023/01/27 07:51:50;;;;;;;;;;;19.20;51.40;;;;;;7752202;23;20327;-70
2023/01/27 07:54:50;;;;;;;;;;;19.20;51.40;;;;;;7751909;23;19903;-70
2023/01/27 07:57:54;;;;;;;;;;;19.20;51.50;;;;;;7725467;23;19934;-70
2023/01/27 08:00:55;;;;;;;;;;;19.20;51.40;;;;;;7724600;23;19943;-70
2023/01/27 08:03:55;;;;;;;;;;;19.20;51.40;;;;;;7725261;23;19990;-71
2023/01/27 08:06:56;;;;;;;;;;;19.20;51.50;;;;;;7752257;22;19908;-70
2023/01/27 08:09:57;;;;;;;;;;;19.20;51.50;;;;;;7751986;23;19908;-71
2023/01/27 08:12:57;;;;;;;;;;;19.20;51.50;;;;;;7752002;23;20006;-70
2023/01/27 08:15:58;;;;;;;;;;;19.20;51.40;;;;;;7752070;22;19904;-70
2023/01/27 08:18:59;;;;;;;;;;;19.10;51.40;;;;;;7752161;23;19907;-70
2023/01/27 08:21:59;;;;;;;;;;;19.20;51.50;;;;;;7751870;23;20059;-71
2023/01/27 08:25:00;;;;;;;;;;;19.10;51.30;;;;;;7751608;23;19941;-70
2023/01/27 08:28:04;;;;;;;;;;;19.10;51.40;;;;;;7752871;22;19915;-71
2023/01/27 08:31:10;;;;;;;;;;;19.20;51.50;;;;;;7725127;23;20346;-71
2023/01/27 08:34:10;;;;;;;;;;;19.20;51.50;;;;;;7725388;23;19903;-71
2023/01/27 08:37:11;;;;;;;;;;;19.20;51.40;;;;;;7751395;22;19939;-70
2023/01/27 08:40:12;;;;;;;;;;;19.10;51.40;;;;;;7751077;23;19991;-70
2023/01/27 08:43:15;;;;;;;;;;;19.20;51.50;;;;;;7751894;23;19966;-70
2023/01/27 08:46:16;;;;;;;;;;;19.10;51.50;;;;;;7751853;22;19915;-70
2023/01/27 08:49:16;;;;;;;;;;;19.20;51.50;;;;;;7751411;23;19907;-71
2023/01/27 08:52:17;;;;;;;;;;;19.20;51.50;;;;;;7751940;23;19915;-71
2023/01/27 08:55:17;;;;;;;;;;;19.20;51.50;;;;;;7751790;23;19926;-70
2023/01/27 08:58:18;;;;;;;;;;;19.20;51.50;;;;;;7751983;22;19904;-71
2023/01/27 09:01:19;;;;;;;;;;;19.20;51.50;;;;;;7751440;23;19954;-70
2023/01/27 09:04:20;;;;;;;;;;;19.20;51.40;;;;;;7751643;23;19930;-71
2023/01/27 09:07:21;;;;;;;;;;;19.20;51.50;;;;;;7751705;22;19934;-70
2023/01/27 09:10:21;;;;;;;;;;;19.20;51.50;;;;;;7751488;23;19979;-71
2023/01/27 09:13:22;;;;;;;;;;;19.20;51.40;;;;;;7751474;23;19965;-70
2023/01/27 09:16:23;;;;;;;;;;;19.20;51.50;;;;;;7750453;22;20358;-71
2023/01/27 09:19:23;;;;;;;;;;;19.10;51.40;;;;;;7723933;23;19959;-72
2023/01/27 09:22:24;;;;;;;;;;;19.10;51.40;;;;;;7751221;23;19911;-70
2023/01/27 09:25:24;;;;;;;;;;;19.20;51.50;;;;;;7723926;23;19903;-70
2023/01/27 09:28:25;;;;;;;;;;;19.20;51.40;;;;;;7750542;23;19914;-70
2023/01/27 09:31:25;;;;;;;;;;;19.20;51.50;;;;;;7751136;23;19915;-71
2023/01/27 09:34:26;;;;;;;;;;;19.20;51.40;;;;;;7752035;23;20022;-70
2023/01/27 09:37:27;;;;;;;;;;;19.20;51.50;;;;;;7753042;22;19907;-71
2023/01/27 09:40:30;;;;;;;;;;;19.20;51.50;;;;;;7754143;23;19912;-70
2023/01/27 09:43:45;;;;;;;;;;;19.20;51.50;;;;;;7726899;23;19903;-70
2023/01/27 09:46:49;;;;;;;;;;;19.20;51.50;;;;;;7753401;22;19904;-70
2023/01/27 09:50:00;;;;;;;;;;;19.20;51.50;;;;;;7727141;23;19919;-70
2023/01/27 09:53:03;;;;;;;;;;;19.20;51.50;;;;;;7753629;23;19903;-70
2023/01/27 09:56:07;;;;;;;;;;;19.20;51.50;;;;;;7753561;22;19996;-69
2023/01/27 09:59:16;;;;;;;;;;;19.20;52.20;;;;;;7754925;23;19915;-68
2023/01/27 10:02:19;;;;;;;;;;;19.20;51.50;;;;;;7707404;23;19908;-68
2023/01/27 10:05:40;;;;;;;;;;;19.20;51.50;;;;;;7639132;23;19914;-68
2023/01/27 10:08:47;;;;;;;;;;;19.20;51.70;;;;;;7641073;23;19920;-68
2023/01/27 10:11:56;;;;;;;;;;;19.10;51.50;;;;;;7636670;23;19908;-68
2023/01/27 10:14:57;;;;;;;;;;;19.20;51.50;;;;;;7641618;23;19909;-68
2023/01/27 10:18:16;;;;;;;;;;;19.20;51.80;;;;;;7641552;23;19905;-68
2023/01/27 10:21:26;;;;;;;;;;;19.20;51.50;;;;;;7641768;23;19944;-68
2023/01/27 10:24:44;;;;;;;;;;;19.20;51.60;;;;;;7641569;23;19905;-67
2023/01/27 10:27:51;;;;;;;;;;;19.20;51.60;;;;;;7641371;23;19905;-68
2023/01/27 10:30:51;;;;;;;;;;;19.20;51.60;;;;;;7641442;23;19951;-68
2023/01/27 10:33:53;;;;;;;;;;;19.20;51.60;;;;;;7641741;23;20218;-68
2023/01/27 10:37:00;;;;;;;;;;;19.20;51.60;;;;;;7639870;23;19905;-68
2023/01/27 10:40:04;;;;;;;;;;;19.20;51.60;;;;;;7640957;23;19909;-68
2023/01/27 10:43:10;;;;;;;;;;;19.20;51.70;;;;;;7641198;23;19904;-68
2023/01/27 10:46:32;;;;;;;;;;;19.20;51.70;;;;;;7640129;23;19912;-65
2023/01/27 10:49:32;;;;;;;;;;;19.20;51.70;;;;;;7641655;23;19916;-68
2023/01/27 10:52:37;;;;;;;;;;;19.10;51.60;;;;;;7641277;23;19905;-68
2023/01/27 10:55:48;;;;;;;;;;;19.20;51.60;;;;;;7639444;23;20011;-68
2023/01/27 10:58:49;;;;;;;;;;;19.20;51.50;;;;;;7640624;23;20329;-68
2023/01/27 11:01:57;;;;;;;;;;;19.20;51.30;;;;;;7640276;23;19905;-68
2023/01/27 11:04:59;;;;;;;;;;;19.20;51.70;;;;;;7638691;23;20557;-68
2023/01/27 11:08:10;;;;;;;;;;;19.20;51.60;;;;;;7640641;23;19904;-68
2023/01/27 11:14:53;;;;;;;;;;;19.20;51.50;;;;;;7641176;23;19908;-71
2023/01/27 11:17:57;;;;;;;;;;;19.20;51.60;;;;;;7634658;23;20240;-71
2023/01/27 11:21:16;;;;;;;;;;;19.20;51.60;;;;;;7635049;23;19916;-71
2023/01/27 11:24:27;;;;;;;;;;;19.20;51.70;;;;;;7638658;23;19905;-70
2023/01/27 11:27:31;;;;;;;;;;;19.20;51.60;;;;;;7640863;23;19916;-68
2023/01/27 11:30:41;;;;;;;;;;;19.20;51.50;;;;;;7638518;23;19912;-68
2023/01/27 11:34:01;;;;;;;;;;;19.20;51.60;;;;;;7632852;23;19995;-68
2023/01/27 11:37:25;;;;;;;;;;;19.30;51.70;;;;;;7638431;23;19909;-67
2023/01/27 11:40:28;;;;;;;;;;;19.30;51.40;;;;;;7631576;23;19908;-68
2023/01/27 11:43:29;;;;;;;;;;;19.30;51.20;;;;;;7640066;23;20531;-68
2023/01/27 11:46:31;;;;;;;;;;;19.30;51.10;;;;;;7639896;23;19909;-68
2023/01/27 11:49:40;;;;;;;;;;;19.30;51.00;;;;;;7638012;23;19904;-68
2023/01/27 11:52:42;;;;;;;;;;;19.40;50.90;;;;;;7638344;23;19905;-68
2023/01/27 11:55:46;;;;;;;;;;;19.40;51.10;;;;;;7634345;23;19912;-68
2023/01/27 11:59:00;;;;;;;;;;;19.40;51.10;;;;;;7638396;23;20352;-68
2023/01/27 12:02:00;;;;;;;;;;;19.40;51.20;;;;;;7638587;23;20368;-68
2023/01/27 12:05:11;;;;;;;;;;;19.30;51.20;;;;;;7640025;23;19920;-68
2023/01/27 12:08:11;;;;;;;;;;;19.40;51.30;;;;;;7638699;23;19912;-68
2023/01/27 12:11:18;;;;;;;;;;;19.30;51.30;;;;;;7637904;23;20244;-68
2023/01/27 12:14:22;;;;;;;;;;;19.30;51.30;;;;;;7639882;23;19912;-68
2023/01/27 12:17:36;;;;;;;;;;;19.40;51.40;;;;;;7638235;23;19905;-68
2023/01/27 12:20:39;;;;;;;;;;;19.30;51.40;;;;;;7637847;23;20108;-68
2023/01/27 12:23:45;;;;;;;;;;;19.30;51.30;;;;;;7639635;23;19928;-68
2023/01/27 12:26:46;;;;;;;;;;;19.40;51.40;;;;;;7639610;23;19905;-68
2023/01/27 12:29:53;;;;;;;;;;;19.30;51.30;;;;;;7639602;23;19912;-68
2023/01/27 12:32:54;;;;;;;;;;;19.30;51.30;;;;;;7639368;23;19927;-68
2023/01/27 12:35:59;;;;;;;;;;;19.30;51.30;;;;;;7639503;23;20337;-68
2023/01/27 12:39:01;;;;;;;;;;;19.30;51.20;;;;;;7639508;23;19911;-68
2023/01/27 12:42:01;;;;;;;;;;;19.30;51.20;;;;;;7638451;23;20281;-68
2023/01/27 12:45:14;;;;;;;;;;;19.40;51.30;;;;;;7637593;23;19980;-68
2023/01/27 12:48:16;;;;;;;;;;;19.40;51.30;;;;;;7638767;23;19928;-68
2023/01/27 12:51:21;;;;;;;;;;;19.40;51.30;;;;;;7639607;23;19984;-68
2023/01/27 12:54:23;;;;;;;;;;;19.40;51.30;;;;;;7639503;23;19908;-68
2023/01/27 12:57:27;;;;;;;;;;;19.40;51.30;;;;;;7639249;23;19913;-68
2023/01/27 13:00:28;;;;;;;;;;;19.40;51.40;;;;;;7637577;23;19949;-68
2023/01/27 13:03:29;;;;;;;;;;;19.40;52.10;;;;;;7639465;23;19905;-68
2023/01/27 13:06:32;;;;;;;;;;;19.40;51.40;;;;;;7639009;23;19912;-68
2023/01/27 13:09:36;;;;;;;;;;;19.40;51.40;;;;;;7638231;23;19905;-69
2023/01/27 13:12:47;;;;;;;;;;;19.40;51.40;;;;;;7632533;23;19904;-68
2023/01/27 13:16:17;;;;;;;;;;;19.40;51.40;;;;;;7634464;23;19920;-68
2023/01/27 13:19:19;;;;;;;;;;;19.30;51.30;;;;;;7626996;23;19916;-69
2023/01/27 13:22:20;;;;;;;;;;;19.40;51.50;;;;;;7639391;23;19928;-68
2023/01/27 13:25:23;;;;;;;;;;;19.30;51.40;;;;;;7634119;23;20252;-68
2023/01/27 13:28:30;;;;;;;;;;;19.40;51.50;;;;;;7639517;23;19905;-69
2023/01/27 13:31:49;;;;;;;;;;;19.40;51.50;;;;;;7639131;23;20256;-68
2023/01/27 13:34:52;;;;;;;;;;;19.40;51.50;;;;;;7639269;23;19909;-68
2023/01/27 13:38:00;;;;;;;;;;;19.30;51.50;;;;;;7639215;23;19909;-68
2023/01/27 13:41:05;;;;;;;;;;;19.30;51.50;;;;;;7628552;23;19939;-68
2023/01/27 13:44:32;;;;;;;;;;;19.40;51.50;;;;;;7637671;23;19908;-68
2023/01/27 13:47:52;;;;;;;;;;;19.30;51.50;;;;;;7615894;23;19904;-68
2023/01/27 13:51:07;;;;;;;;;;;19.30;51.50;;;;;;7625875;23;19908;-68
2023/01/27 13:54:10;;;;;;;;;;;19.30;51.50;;;;;;7639031;23;20404;-68
2023/01/27 13:57:27;;;;;;;;;;;19.30;51.50;;;;;;7634988;23;20023;-68
2023/01/27 14:00:35;;;;;;;;;;;19.30;51.50;;;;;;7637860;23;19912;-68
2023/01/27 14:03:46;;;;;;;;;;;19.30;51.50;;;;;;7637690;23;19924;-68
2023/01/27 14:06:56;;;;;;;;;;;19.30;51.40;;;;;;7638668;23;19908;-68
2023/01/27 14:10:16;;;;;;;;;;;19.40;51.50;;;;;;7638115;23;19911;-68
2023/01/27 14:13:36;;;;;;;;;;;19.30;51.40;;;;;;7638042;23;19905;-68
2023/01/27 14:16:43;;;;;;;;;;;19.30;51.40;;;;;;7637013;23;19908;-68
2023/01/27 14:20:10;;;;;;;;;;;19.40;51.50;;;;;;7635095;23;19979;-68
2023/01/27 14:23:32;;;;;;;;;;;19.40;51.50;;;;;;7615375;23;19987;-68
2023/01/27 14:26:42;;;;;;;;;;;19.40;52.30;;;;;;7640429;23;19912;-68
2023/01/27 14:29:51;;;;;;;;;;;19.40;51.50;;;;;;7640936;23;20023;-68
2023/01/27 14:33:24;;;;;;;;;;;19.40;51.50;;;;;;7640332;23;19943;-68
2023/01/27 14:36:27;;;;;;;;;;;19.40;51.50;;;;;;7606559;23;19904;-68
2023/01/27 14:39:28;;;;;;;;;;;19.40;51.50;;;;;;7640789;23;19995;-68
2023/01/27 14:42:38;;;;;;;;;;;19.40;52.30;;;;;;7633625;23;19915;-68
2023/01/27 14:46:01;;;;;;;;;;;19.40;51.50;;;;;;7639398;23;19905;-66
2023/01/27 14:49:07;;;;;;;;;;;19.40;51.60;;;;;;7632392;23;19912;-68
2023/01/27 14:52:10;;;;;;;;;;;19.40;51.50;;;;;;7640547;23;20355;-68
2023/01/27 14:55:30;;;;;;;;;;;19.40;51.50;;;;;;7638126;23;19905;-68
2023/01/27 14:58:30;;;;;;;;;;;19.40;51.40;;;;;;7639714;23;19904;-68
2023/01/27 15:01:50;;;;;;;;;;;19.40;51.40;;;;;;7639596;23;19912;-68
2023/01/27 15:04:53;;;;;;;;;;;19.40;51.50;;;;;;7638672;23;19904;-68
2023/01/27 15:07:54;;;;;;;;;;;19.40;51.60;;;;;;7638828;23;19912;-69
2023/01/27 15:10:57;;;;;;;;;;;19.40;51.60;;;;;;7639041;23;19904;-68
2023/01/27 15:13:58;;;;;;;;;;;19.40;51.60;;;;;;7636862;23;19927;-68
2023/01/27 15:17:17;;;;;;;;;;;19.40;51.60;;;;;;7637310;23;19936;-69
2023/01/27 15:20:17;;;;;;;;;;;19.40;51.60;;;;;;7638905;23;19918;-69
2023/01/27 15:23:39;;;;;;;;;;;19.40;51.50;;;;;;7638619;23;19904;-68
2023/01/27 15:26:40;;;;;;;;;;;19.40;51.50;;;;;;7608145;23;20351;-68
2023/01/27 15:29:40;;;;;;;;;;;19.40;51.60;;;;;;7639526;23;19909;-68
2023/01/27 15:32:41;;;;;;;;;;;19.40;51.60;;;;;;7638906;23;19948;-68
2023/01/27 15:35:41;;;;;;;;;;;19.40;51.60;;;;;;7638624;23;19936;-68
2023/01/27 15:38:56;;;;;;;;;;;19.40;51.60;;;;;;7639089;23;19951;-68
2023/01/27 15:42:00;;;;;;;;;;;19.40;51.70;;;;;;7639458;23;19916;-69
2023/01/27 15:45:01;;;;;;;;;;;19.40;51.70;;;;;;7639088;23;19909;-68
2023/01/27 15:48:17;;;;;;;;;;;19.40;51.60;;;;;;7639645;23;19980;-68
2023/01/27 15:51:20;;;;;;;;;;;19.40;51.60;;;;;;7639776;23;19971;-68
2023/01/27 15:54:24;;;;;;;;;;;19.40;51.60;;;;;;7638684;23;19936;-68
2023/01/27 15:57:25;;;;;;;;;;;19.40;51.70;;;;;;7638474;23;19911;-68
2023/01/27 16:00:36;;;;;;;;;;;19.40;51.70;;;;;;7637547;23;20321;-68
2023/01/27 16:03:43;;;;;;;;;;;19.40;51.80;;;;;;7637314;23;19905;-68
2023/01/27 16:06:46;;;;;;;;;;;19.30;51.70;;;;;;7639086;23;19905;-68
2023/01/27 16:09:49;;;;;;;;;;;19.30;51.70;;;;;;7639567;23;20324;-69
2023/01/27 16:13:10;;;;;;;;;;;19.40;51.80;;;;;;7639862;23;19909;-68
2023/01/27 16:16:16;;;;;;;;;;;19.40;51.80;;;;;;7638505;23;19912;-69
2023/01/27 16:19:26;;;;;;;;;;;19.30;51.70;;;;;;7638224;23;19963;-69
2023/01/27 16:22:30;;;;;;;;;;;19.30;51.70;;;;;;7639447;23;19991;-68
2023/01/27 16:25:30;;;;;;;;;;;19.30;51.70;;;;;;7638068;23;19904;-68
2023/01/27 16:28:33;;;;;;;;;;;19.40;51.80;;;;;;7639028;23;19911;-69
2023/01/27 16:31:35;;;;;;;;;;;19.30;51.80;;;;;;7638432;23;19944;-70
2023/01/27 16:34:43;;;;;;;;;;;19.40;51.90;;;;;;7629869;23;19980;-70
2023/01/27 16:37:59;;;;;;;;;;;19.40;51.80;;;;;;7639565;23;19904;-70
2023/01/27 16:41:02;;;;;;;;;;;19.30;51.80;;;;;;7639421;23;19912;-69
2023/01/27 16:44:06;;;;;;;;;;;19.30;51.80;;;;;;7632863;23;19905;-69
2023/01/27 16:47:16;;;;;;;;;;;19.40;51.80;;;;;;7638970;23;19905;-68
2023/01/27 16:50:49;;;;;;;;;;;19.40;51.90;;;;;;7638990;23;19904;-69
2023/01/27 16:53:52;;;;;;;;;;;19.30;51.80;;;;;;7590878;23;19995;-68
2023/01/27 16:56:53;;;;;;;;;;;19.30;51.80;;;;;;7627711;23;19909;-67
2023/01/27 16:59:57;;;;;;;;;;;19.30;51.80;;;;;;7639090;23;19908;-67
2023/01/27 17:03:00;;;;;;;;;;;19.30;51.80;;;;;;7637840;23;20338;-67
2023/01/27 17:06:03;;;;;;;;;;;19.30;51.80;;;;;;7637377;23;19904;-67
2023/01/27 17:09:17;;;;;;;;;;;19.40;51.90;;;;;;7635594;23;19904;-68
2023/01/27 17:12:26;;;;;;;;;;;19.40;51.90;;;;;;7637737;23;20005;-68
2023/01/27 17:15:35;;;;;;;;;;;19.40;51.90;;;;;;7635186;23;19909;-66
2023/01/27 17:18:38;;;;;;;;;;;19.40;51.90;;;;;;7634044;23;19928;-68
2023/01/27 17:21:51;;;;;;;;;;;19.40;51.90;;;;;;7634806;23;19909;-68
2023/01/27 17:24:53;;;;;;;;;;;19.40;51.90;;;;;;7635437;23;20351;-68
2023/01/27 17:27:54;;;;;;;;;;;19.30;51.80;;;;;;7635068;23;19912;-68
2023/01/27 17:31:01;;;;;;;;;;;19.30;51.80;;;;;;7635149;23;19912;-68
2023/01/27 17:34:02;;;;;;;;;;;19.40;51.90;;;;;;7633237;23;20338;-68
2023/01/27 17:37:19;;;;;;;;;;;19.40;51.90;;;;;;7635513;23;19909;-68
2023/01/27 17:40:21;;;;;;;;;;;19.30;51.90;;;;;;7635385;23;20549;-68
2023/01/27 17:43:33;;;;;;;;;;;19.40;52.00;;;;;;7634368;23;19904;-68
2023/01/27 17:46:34;;;;;;;;;;;19.40;52.10;;;;;;7634982;23;19909;-68
2023/01/27 17:49:37;;;;;;;;;;;19.40;52.00;;;;;;7633615;23;19916;-67
2023/01/27 17:52:41;;;;;;;;;;;19.30;52.00;;;;;;7633199;23;19913;-68
2023/01/27 17:55:42;;;;;;;;;;;19.40;52.10;;;;;;7634096;23;19928;-68
2023/01/27 17:58:44;;;;;;;;;;;19.30;52.00;;;;;;7636347;23;19981;-67
2023/01/27 18:01:47;;;;;;;;;;;19.40;52.10;;;;;;7636105;23;19908;-69
2023/01/27 18:04:48;;;;;;;;;;;19.30;52.10;;;;;;7638144;23;19936;-68
2023/01/27 18:07:49;;;;;;;;;;;19.30;52.10;;;;;;7636827;23;20090;-68
2023/01/27 18:10:50;;;;;;;;;;;19.30;52.10;;;;;;7637410;23;19905;-68
2023/01/27 18:13:52;;;;;;;;;;;19.30;52.10;;;;;;7636794;23;19911;-69
2023/01/27 18:16:59;;;;;;;;;;;19.30;52.10;;;;;;7633697;23;19960;-68
2023/01/27 18:20:00;;;;;;;;;;;19.30;52.10;;;;;;7636944;23;19919;-68
2023/01/27 18:23:06;;;;;;;;;;;19.30;52.20;;;;;;7637914;23;19958;-66
2023/01/27 18:26:17;;;;;;;;;;;19.30;52.10;;;;;;7637339;23;19905;-67
2023/01/27 18:29:21;;;;;;;;;;;19.30;52.20;;;;;;7637016;23;20300;-67
2023/01/27 18:32:23;;;;;;;;;;;19.30;50.90;;;;;;7637329;23;19916;-67